sensor_id;sensor_type;location;lat;lon;timestamp;P1;durP1;ratioP1;P2;durP2;ratioP2
25111;SDS011;13092;51.996;4.458;2023-05-21T00:01:31;58.85;;;54.45;;
25111;SDS011;13092;51.996;4.458;2023-05-21T00:03:59;59.15;;;54.72;;
25111;SDS011;13092;51.996;4.458;2023-05-21T00:06:28;59.97;;;55.38;;
25111;SDS011;13092;51.996;4.458;2023-05-21T00:08:58;58.67;;;53.97;;
25111;SDS011;13092;51.996;4.458;2023-05-21T00:11:27;58.47;;;53.75;;
25111;SDS011;13092;51.996;4.458;2023-05-21T00:13:56;60.20;;;55.30;;
25111;SDS011;13092;51.996;4.458;2023-05-21T00:16:24;59.42;;;54.55;;
25111;SDS011;13092;51.996;4.458;2023-05-21T00:18:53;59.05;;;54.25;;
25111;SDS011;13092;51.996;4.458;2023-05-21T00:21:23;59.97;;;55.17;;
25111;SDS011;13092;51.996;4.458;2023-05-21T00:23:52;59.42;;;54.42;;
25111;SDS011;13092;51.996;4.458;2023-05-21T00:26:21;58.45;;;53.55;;
25111;SDS011;13092;51.996;4.458;2023-05-21T00:28:51;58.05;;;53.13;;
25111;SDS011;13092;51.996;4.458;2023-05-21T00:31:20;59.03;;;54.05;;
25111;SDS011;13092;51.996;4.458;2023-05-21T00:33:49;59.30;;;54.30;;
25111;SDS011;13092;51.996;4.458;2023-05-21T00:36:20;58.15;;;53.25;;
25111;SDS011;13092;51.996;4.458;2023-05-21T00:38:49;57.42;;;52.67;;
25111;SDS011;13092;51.996;4.458;2023-05-21T00:41:18;55.70;;;50.97;;
25111;SDS011;13092;51.996;4.458;2023-05-21T00:43:51;57.53;;;52.67;;
25111;SDS011;13092;51.996;4.458;2023-05-21T00:46:21;57.72;;;52.72;;
25111;SDS011;13092;51.996;4.458;2023-05-21T00:48:50;56.20;;;51.35;;
25111;SDS011;13092;51.996;4.458;2023-05-21T00:51:19;55.50;;;50.90;;
25111;SDS011;13092;51.996;4.458;2023-05-21T00:53:48;57.13;;;52.30;;
25111;SDS011;13092;51.996;4.458;2023-05-21T00:56:21;56.70;;;51.85;;
25111;SDS011;13092;51.996;4.458;2023-05-21T00:58:53;55.15;;;50.35;;
25111;SDS011;13092;51.996;4.458;2023-05-21T01:01:24;56.25;;;51.25;;
25111;SDS011;13092;51.996;4.458;2023-05-21T01:03:53;56.65;;;51.55;;
25111;SDS011;13092;51.996;4.458;2023-05-21T01:06:23;56.25;;;51.28;;
25111;SDS011;13092;51.996;4.458;2023-05-21T01:08:51;56.50;;;51.25;;
25111;SDS011;13092;51.996;4.458;2023-05-21T01:11:21;56.03;;;51.10;;
25111;SDS011;13092;51.996;4.458;2023-05-21T01:14:01;56.55;;;51.58;;
25111;SDS011;13092;51.996;4.458;2023-05-21T01:16:30;54.88;;;49.97;;
25111;SDS011;13092;51.996;4.458;2023-05-21T01:18:59;56.28;;;51.15;;
25111;SDS011;13092;51.996;4.458;2023-05-21T01:21:29;54.85;;;50.08;;
25111;SDS011;13092;51.996;4.458;2023-05-21T01:23:58;54.38;;;49.78;;
25111;SDS011;13092;51.996;4.458;2023-05-21T01:26:27;55.95;;;51.08;;
25111;SDS011;13092;51.996;4.458;2023-05-21T01:28:55;52.92;;;48.30;;
25111;SDS011;13092;51.996;4.458;2023-05-21T01:31:25;53.88;;;49.28;;
25111;SDS011;13092;51.996;4.458;2023-05-21T01:33:58;55.88;;;50.88;;
25111;SDS011;13092;51.996;4.458;2023-05-21T01:36:33;53.67;;;49.08;;
25111;SDS011;13092;51.996;4.458;2023-05-21T01:39:11;53.60;;;48.70;;
25111;SDS011;13092;51.996;4.458;2023-05-21T01:41:45;54.45;;;49.45;;
25111;SDS011;13092;51.996;4.458;2023-05-21T01:44:14;53.90;;;49.13;;
25111;SDS011;13092;51.996;4.458;2023-05-21T01:46:45;54.95;;;49.97;;
25111;SDS011;13092;51.996;4.458;2023-05-21T01:49:14;53.13;;;48.33;;
25111;SDS011;13092;51.996;4.458;2023-05-21T01:51:44;53.05;;;48.35;;
25111;SDS011;13092;51.996;4.458;2023-05-21T01:54:15;52.28;;;47.70;;
25111;SDS011;13092;51.996;4.458;2023-05-21T01:56:43;52.53;;;47.72;;
25111;SDS011;13092;51.996;4.458;2023-05-21T01:59:11;53.45;;;48.65;;
25111;SDS011;13092;51.996;4.458;2023-05-21T02:01:39;53.67;;;48.97;;
25111;SDS011;13092;51.996;4.458;2023-05-21T02:04:07;53.65;;;48.95;;
25111;SDS011;13092;51.996;4.458;2023-05-21T02:06:35;52.75;;;48.15;;
25111;SDS011;13092;51.996;4.458;2023-05-21T02:09:04;53.47;;;48.10;;
25111;SDS011;13092;51.996;4.458;2023-05-21T02:11:35;52.53;;;47.83;;
25111;SDS011;13092;51.996;4.458;2023-05-21T02:14:03;51.33;;;46.72;;
25111;SDS011;13092;51.996;4.458;2023-05-21T02:16:31;53.50;;;48.70;;
25111;SDS011;13092;51.996;4.458;2023-05-21T02:19:00;54.78;;;49.88;;
25111;SDS011;13092;51.996;4.458;2023-05-21T02:21:30;53.50;;;48.63;;
25111;SDS011;13092;51.996;4.458;2023-05-21T02:23:58;52.95;;;48.15;;
25111;SDS011;13092;51.996;4.458;2023-05-21T02:26:26;51.53;;;47.03;;
25111;SDS011;13092;51.996;4.458;2023-05-21T02:28:56;52.42;;;47.83;;
25111;SDS011;13092;51.996;4.458;2023-05-21T02:31:24;52.78;;;48.17;;
25111;SDS011;13092;51.996;4.458;2023-05-21T02:33:53;53.42;;;48.72;;
25111;SDS011;13092;51.996;4.458;2023-05-21T02:36:21;51.38;;;46.83;;
25111;SDS011;13092;51.996;4.458;2023-05-21T02:38:50;51.78;;;47.10;;
25111;SDS011;13092;51.996;4.458;2023-05-21T02:41:20;51.85;;;47.35;;
25111;SDS011;13092;51.996;4.458;2023-05-21T02:43:48;52.10;;;47.42;;
25111;SDS011;13092;51.996;4.458;2023-05-21T02:46:18;51.35;;;46.85;;
25111;SDS011;13092;51.996;4.458;2023-05-21T02:48:46;51.90;;;47.33;;
25111;SDS011;13092;51.996;4.458;2023-05-21T02:51:14;51.28;;;46.78;;
25111;SDS011;13092;51.996;4.458;2023-05-21T02:53:43;50.63;;;45.83;;
25111;SDS011;13092;51.996;4.458;2023-05-21T02:56:11;50.95;;;46.35;;
25111;SDS011;13092;51.996;4.458;2023-05-21T02:58:39;50.80;;;46.30;;
25111;SDS011;13092;51.996;4.458;2023-05-21T03:01:08;50.53;;;46.13;;
25111;SDS011;13092;51.996;4.458;2023-05-21T03:03:38;50.65;;;45.95;;
25111;SDS011;13092;51.996;4.458;2023-05-21T03:06:06;50.25;;;45.67;;
25111;SDS011;13092;51.996;4.458;2023-05-21T03:08:35;50.20;;;45.70;;
25111;SDS011;13092;51.996;4.458;2023-05-21T03:11:03;51.03;;;46.47;;
25111;SDS011;13092;51.996;4.458;2023-05-21T03:13:31;50.10;;;45.53;;
25111;SDS011;13092;51.996;4.458;2023-05-21T03:16:00;48.53;;;44.22;;
25111;SDS011;13092;51.996;4.458;2023-05-21T03:18:28;49.13;;;44.72;;
25111;SDS011;13092;51.996;4.458;2023-05-21T03:20:58;50.35;;;45.63;;
25111;SDS011;13092;51.996;4.458;2023-05-21T03:23:26;49.63;;;45.33;;
25111;SDS011;13092;51.996;4.458;2023-05-21T03:25:54;49.58;;;44.90;;
25111;SDS011;13092;51.996;4.458;2023-05-21T03:28:23;49.95;;;45.53;;
25111;SDS011;13092;51.996;4.458;2023-05-21T03:30:51;49.03;;;44.72;;
25111;SDS011;13092;51.996;4.458;2023-05-21T03:33:20;50.45;;;45.75;;
25111;SDS011;13092;51.996;4.458;2023-05-21T03:35:49;50.13;;;45.70;;
25111;SDS011;13092;51.996;4.458;2023-05-21T03:38:19;50.28;;;45.83;;
25111;SDS011;13092;51.996;4.458;2023-05-21T03:40:47;51.83;;;47.05;;
25111;SDS011;13092;51.996;4.458;2023-05-21T03:43:15;50.60;;;46.10;;
25111;SDS011;13092;51.996;4.458;2023-05-21T03:45:43;51.13;;;46.67;;
25111;SDS011;13092;51.996;4.458;2023-05-21T03:48:12;49.13;;;44.72;;
25111;SDS011;13092;51.996;4.458;2023-05-21T03:50:40;50.75;;;46.15;;
25111;SDS011;13092;51.996;4.458;2023-05-21T03:53:08;50.42;;;45.80;;
25111;SDS011;13092;51.996;4.458;2023-05-21T03:55:39;50.40;;;45.88;;
25111;SDS011;13092;51.996;4.458;2023-05-21T03:58:07;50.47;;;45.97;;
25111;SDS011;13092;51.996;4.458;2023-05-21T04:00:36;50.50;;;46.17;;
25111;SDS011;13092;51.996;4.458;2023-05-21T04:03:04;51.28;;;46.78;;
25111;SDS011;13092;51.996;4.458;2023-05-21T04:05:32;50.45;;;45.95;;
25111;SDS011;13092;51.996;4.458;2023-05-21T04:08:01;49.53;;;45.17;;
25111;SDS011;13092;51.996;4.458;2023-05-21T04:10:30;50.28;;;45.67;;
25111;SDS011;13092;51.996;4.458;2023-05-21T04:12:59;50.45;;;45.90;;
25111;SDS011;13092;51.996;4.458;2023-05-21T04:15:27;51.17;;;46.58;;
25111;SDS011;13092;51.996;4.458;2023-05-21T04:17:55;51.78;;;46.78;;
25111;SDS011;13092;51.996;4.458;2023-05-21T04:20:28;51.33;;;46.63;;
25111;SDS011;13092;51.996;4.458;2023-05-21T04:22:57;50.05;;;45.65;;
25111;SDS011;13092;51.996;4.458;2023-05-21T04:25:25;49.90;;;45.45;;
25111;SDS011;13092;51.996;4.458;2023-05-21T04:27:56;49.53;;;45.20;;
25111;SDS011;13092;51.996;4.458;2023-05-21T04:30:25;48.92;;;44.53;;
25111;SDS011;13092;51.996;4.458;2023-05-21T04:32:53;50.30;;;45.90;;
25111;SDS011;13092;51.996;4.458;2023-05-21T04:35:23;50.20;;;45.90;;
25111;SDS011;13092;51.996;4.458;2023-05-21T04:37:52;50.05;;;45.72;;
25111;SDS011;13092;51.996;4.458;2023-05-21T04:40:20;50.35;;;45.95;;
25111;SDS011;13092;51.996;4.458;2023-05-21T04:42:50;51.25;;;46.70;;
25111;SDS011;13092;51.996;4.458;2023-05-21T04:45:18;50.60;;;46.10;;
25111;SDS011;13092;51.996;4.458;2023-05-21T04:47:47;49.83;;;45.42;;
25111;SDS011;13092;51.996;4.458;2023-05-21T04:50:16;50.70;;;46.20;;
25111;SDS011;13092;51.996;4.458;2023-05-21T04:52:45;51.13;;;46.63;;
25111;SDS011;13092;51.996;4.458;2023-05-21T04:55:13;49.90;;;45.50;;
25111;SDS011;13092;51.996;4.458;2023-05-21T04:57:44;49.92;;;45.60;;
25111;SDS011;13092;51.996;4.458;2023-05-21T05:00:12;50.50;;;46.20;;
25111;SDS011;13092;51.996;4.458;2023-05-21T05:02:41;49.83;;;45.22;;
25111;SDS011;13092;51.996;4.458;2023-05-21T05:05:11;49.40;;;44.80;;
25111;SDS011;13092;51.996;4.458;2023-05-21T05:07:39;49.90;;;45.22;;
25111;SDS011;13092;51.996;4.458;2023-05-21T05:10:08;50.40;;;46.00;;
25111;SDS011;13092;51.996;4.458;2023-05-21T05:12:36;50.15;;;45.78;;
25111;SDS011;13092;51.996;4.458;2023-05-21T05:15:04;50.47;;;46.08;;
25111;SDS011;13092;51.996;4.458;2023-05-21T05:17:33;50.30;;;45.70;;
25111;SDS011;13092;51.996;4.458;2023-05-21T05:20:02;49.40;;;45.15;;
25111;SDS011;13092;51.996;4.458;2023-05-21T05:22:33;49.67;;;45.28;;
25111;SDS011;13092;51.996;4.458;2023-05-21T05:25:01;49.40;;;45.10;;
25111;SDS011;13092;51.996;4.458;2023-05-21T05:27:30;49.90;;;45.65;;
25111;SDS011;13092;51.996;4.458;2023-05-21T05:30:03;50.28;;;45.78;;
25111;SDS011;13092;51.996;4.458;2023-05-21T05:32:31;50.20;;;45.80;;
25111;SDS011;13092;51.996;4.458;2023-05-21T05:35:00;50.60;;;46.30;;
25111;SDS011;13092;51.996;4.458;2023-05-21T05:37:28;50.15;;;45.75;;
25111;SDS011;13092;51.996;4.458;2023-05-21T05:40:00;50.38;;;45.85;;
25111;SDS011;13092;51.996;4.458;2023-05-21T05:42:29;50.00;;;45.72;;
25111;SDS011;13092;51.996;4.458;2023-05-21T05:44:57;51.03;;;46.50;;
25111;SDS011;13092;51.996;4.458;2023-05-21T05:47:25;50.40;;;46.08;;
25111;SDS011;13092;51.996;4.458;2023-05-21T05:49:53;50.92;;;46.40;;
25111;SDS011;13092;51.996;4.458;2023-05-21T05:52:21;50.47;;;46.25;;
25111;SDS011;13092;51.996;4.458;2023-05-21T05:54:49;50.80;;;46.22;;
25111;SDS011;13092;51.996;4.458;2023-05-21T05:57:19;50.05;;;45.55;;
25111;SDS011;13092;51.996;4.458;2023-05-21T05:59:47;51.22;;;46.70;;
25111;SDS011;13092;51.996;4.458;2023-05-21T06:02:15;51.50;;;46.90;;
25111;SDS011;13092;51.996;4.458;2023-05-21T06:04:44;49.80;;;45.60;;
25111;SDS011;13092;51.996;4.458;2023-05-21T06:07:12;51.58;;;47.05;;
25111;SDS011;13092;51.996;4.458;2023-05-21T06:09:40;51.17;;;46.67;;
25111;SDS011;13092;51.996;4.458;2023-05-21T06:12:08;53.13;;;48.50;;
25111;SDS011;13092;51.996;4.458;2023-05-21T06:14:41;51.70;;;47.10;;
25111;SDS011;13092;51.996;4.458;2023-05-21T06:17:11;50.67;;;46.30;;
25111;SDS011;13092;51.996;4.458;2023-05-21T06:19:39;51.28;;;46.58;;
25111;SDS011;13092;51.996;4.458;2023-05-21T06:22:07;52.45;;;47.83;;
25111;SDS011;13092;51.996;4.458;2023-05-21T06:24:35;52.05;;;47.45;;
25111;SDS011;13092;51.996;4.458;2023-05-21T06:27:03;52.13;;;47.63;;
25111;SDS011;13092;51.996;4.458;2023-05-21T06:29:31;52.35;;;47.80;;
25111;SDS011;13092;51.996;4.458;2023-05-21T06:32:01;53.08;;;48.45;;
25111;SDS011;13092;51.996;4.458;2023-05-21T06:34:29;53.53;;;48.92;;
25111;SDS011;13092;51.996;4.458;2023-05-21T06:36:57;51.53;;;47.00;;
25111;SDS011;13092;51.996;4.458;2023-05-21T06:39:26;52.92;;;48.13;;
25111;SDS011;13092;51.996;4.458;2023-05-21T06:41:54;53.78;;;49.08;;
25111;SDS011;13092;51.996;4.458;2023-05-21T06:44:22;53.55;;;48.95;;
25111;SDS011;13092;51.996;4.458;2023-05-21T06:46:50;53.88;;;49.05;;
25111;SDS011;13092;51.996;4.458;2023-05-21T06:49:19;53.78;;;48.97;;
25111;SDS011;13092;51.996;4.458;2023-05-21T06:51:48;53.97;;;49.38;;
25111;SDS011;13092;51.996;4.458;2023-05-21T06:54:16;54.33;;;49.58;;
25111;SDS011;13092;51.996;4.458;2023-05-21T06:56:46;52.35;;;47.85;;
25111;SDS011;13092;51.996;4.458;2023-05-21T06:59:14;54.00;;;49.40;;
25111;SDS011;13092;51.996;4.458;2023-05-21T07:01:42;53.60;;;49.10;;
25111;SDS011;13092;51.996;4.458;2023-05-21T07:04:11;53.97;;;49.38;;
25111;SDS011;13092;51.996;4.458;2023-05-21T07:06:40;52.97;;;48.38;;
25111;SDS011;13092;51.996;4.458;2023-05-21T07:09:08;53.25;;;48.75;;
25111;SDS011;13092;51.996;4.458;2023-05-21T07:11:36;53.88;;;49.38;;
25111;SDS011;13092;51.996;4.458;2023-05-21T07:14:04;53.17;;;48.67;;
25111;SDS011;13092;51.996;4.458;2023-05-21T07:16:34;52.35;;;47.80;;
25111;SDS011;13092;51.996;4.458;2023-05-21T07:19:03;52.97;;;48.25;;
25111;SDS011;13092;51.996;4.458;2023-05-21T07:21:31;52.53;;;47.88;;
25111;SDS011;13092;51.996;4.458;2023-05-21T07:24:00;52.92;;;48.42;;
25111;SDS011;13092;51.996;4.458;2023-05-21T07:26:28;53.55;;;48.67;;
25111;SDS011;13092;51.996;4.458;2023-05-21T07:28:57;52.53;;;48.08;;
25111;SDS011;13092;51.996;4.458;2023-05-21T07:31:25;52.97;;;48.38;;
25111;SDS011;13092;51.996;4.458;2023-05-21T07:33:53;52.35;;;47.97;;
25111;SDS011;13092;51.996;4.458;2023-05-21T07:36:21;54.60;;;49.78;;
25111;SDS011;13092;51.996;4.458;2023-05-21T07:38:49;53.13;;;48.83;;
25111;SDS011;13092;51.996;4.458;2023-05-21T07:41:19;54.53;;;50.17;;
25111;SDS011;13092;51.996;4.458;2023-05-21T07:43:48;53.40;;;48.90;;
25111;SDS011;13092;51.996;4.458;2023-05-21T07:46:18;53.38;;;49.15;;
25111;SDS011;13092;51.996;4.458;2023-05-21T07:48:49;54.33;;;49.97;;
25111;SDS011;13092;51.996;4.458;2023-05-21T07:51:17;54.05;;;49.75;;
25111;SDS011;13092;51.996;4.458;2023-05-21T07:53:45;53.70;;;49.47;;
25111;SDS011;13092;51.996;4.458;2023-05-21T07:56:13;54.22;;;49.83;;
25111;SDS011;13092;51.996;4.458;2023-05-21T07:58:43;53.15;;;48.80;;
25111;SDS011;13092;51.996;4.458;2023-05-21T08:01:13;53.63;;;49.25;;
25111;SDS011;13092;51.996;4.458;2023-05-21T08:03:42;53.53;;;48.88;;
25111;SDS011;13092;51.996;4.458;2023-05-21T08:06:10;53.92;;;49.53;;
25111;SDS011;13092;51.996;4.458;2023-05-21T08:08:38;54.92;;;50.30;;
25111;SDS011;13092;51.996;4.458;2023-05-21T08:11:06;53.22;;;49.03;;
25111;SDS011;13092;51.996;4.458;2023-05-21T08:13:35;54.20;;;49.50;;
25111;SDS011;13092;51.996;4.458;2023-05-21T08:16:05;54.58;;;50.15;;
25111;SDS011;13092;51.996;4.458;2023-05-21T08:18:33;55.97;;;51.58;;
25111;SDS011;13092;51.996;4.458;2023-05-21T08:21:01;54.53;;;50.33;;
25111;SDS011;13092;51.996;4.458;2023-05-21T08:23:30;56.83;;;52.13;;
25111;SDS011;13092;51.996;4.458;2023-05-21T08:25:58;57.53;;;53.03;;
25111;SDS011;13092;51.996;4.458;2023-05-21T08:28:26;59.83;;;55.03;;
25111;SDS011;13092;51.996;4.458;2023-05-21T08:30:55;58.22;;;53.58;;
25111;SDS011;13092;51.996;4.458;2023-05-21T08:33:24;57.08;;;52.63;;
25111;SDS011;13092;51.996;4.458;2023-05-21T08:35:53;57.08;;;52.38;;
25111;SDS011;13092;51.996;4.458;2023-05-21T08:38:23;56.60;;;51.60;;
25111;SDS011;13092;51.996;4.458;2023-05-21T08:40:55;56.00;;;51.60;;
25111;SDS011;13092;51.996;4.458;2023-05-21T08:43:24;56.70;;;52.00;;
25111;SDS011;13092;51.996;4.458;2023-05-21T08:45:55;55.58;;;51.17;;
25111;SDS011;13092;51.996;4.458;2023-05-21T08:48:26;55.47;;;51.17;;
25111;SDS011;13092;51.996;4.458;2023-05-21T08:50:55;56.67;;;52.17;;
25111;SDS011;13092;51.996;4.458;2023-05-21T08:53:25;56.15;;;51.75;;
25111;SDS011;13092;51.996;4.458;2023-05-21T08:55:54;56.17;;;51.80;;
25111;SDS011;13092;51.996;4.458;2023-05-21T08:58:23;56.20;;;51.80;;
25111;SDS011;13092;51.996;4.458;2023-05-21T09:00:54;55.65;;;51.40;;
25111;SDS011;13092;51.996;4.458;2023-05-21T09:03:22;54.92;;;50.75;;
25111;SDS011;13092;51.996;4.458;2023-05-21T09:05:53;52.67;;;48.88;;
25111;SDS011;13092;51.996;4.458;2023-05-21T09:08:23;52.58;;;48.67;;
25111;SDS011;13092;51.996;4.458;2023-05-21T09:10:56;53.13;;;49.22;;
25111;SDS011;13092;51.996;4.458;2023-05-21T09:13:24;51.78;;;48.08;;
25111;SDS011;13092;51.996;4.458;2023-05-21T09:15:53;53.83;;;50.22;;
25111;SDS011;13092;51.996;4.458;2023-05-21T09:18:22;53.03;;;49.38;;
25111;SDS011;13092;51.996;4.458;2023-05-21T09:20:55;50.83;;;47.33;;
25111;SDS011;13092;51.996;4.458;2023-05-21T09:23:24;49.92;;;46.42;;
25111;SDS011;13092;51.996;4.458;2023-05-21T09:25:55;48.17;;;44.97;;
25111;SDS011;13092;51.996;4.458;2023-05-21T09:28:24;51.42;;;48.10;;
25111;SDS011;13092;51.996;4.458;2023-05-21T09:30:52;51.10;;;47.67;;
25111;SDS011;13092;51.996;4.458;2023-05-21T09:33:24;50.28;;;46.65;;
25111;SDS011;13092;51.996;4.458;2023-05-21T09:35:56;49.08;;;45.78;;
25111;SDS011;13092;51.996;4.458;2023-05-21T09:38:24;51.70;;;48.25;;
25111;SDS011;13092;51.996;4.458;2023-05-21T09:40:53;51.83;;;48.10;;
25111;SDS011;13092;51.996;4.458;2023-05-21T09:43:22;50.22;;;46.83;;
25111;SDS011;13092;51.996;4.458;2023-05-21T09:45:52;50.50;;;46.90;;
25111;SDS011;13092;51.996;4.458;2023-05-21T09:48:32;52.75;;;49.28;;
25111;SDS011;13092;51.996;4.458;2023-05-21T09:51:10;52.60;;;49.28;;
25111;SDS011;13092;51.996;4.458;2023-05-21T09:53:43;54.05;;;50.35;;
25111;SDS011;13092;51.996;4.458;2023-05-21T09:56:15;53.67;;;50.15;;
25111;SDS011;13092;51.996;4.458;2023-05-21T09:58:47;48.92;;;45.97;;
25111;SDS011;13092;51.996;4.458;2023-05-21T10:01:18;43.50;;;40.75;;
25111;SDS011;13092;51.996;4.458;2023-05-21T10:03:47;38.58;;;36.05;;
25111;SDS011;13092;51.996;4.458;2023-05-21T10:06:21;25.20;;;23.17;;
25111;SDS011;13092;51.996;4.458;2023-05-21T10:08:52;16.85;;;15.23;;
25111;SDS011;13092;51.996;4.458;2023-05-21T10:11:22;15.48;;;9.75;;
25111;SDS011;13092;51.996;4.458;2023-05-21T10:13:54;10.45;;;6.47;;
25111;SDS011;13092;51.996;4.458;2023-05-21T10:16:24;8.20;;;6.32;;
25111;SDS011;13092;51.996;4.458;2023-05-21T10:18:53;11.70;;;6.65;;
25111;SDS011;13092;51.996;4.458;2023-05-21T10:21:24;10.27;;;6.10;;
25111;SDS011;13092;51.996;4.458;2023-05-21T10:23:56;8.55;;;5.68;;
25111;SDS011;13092;51.996;4.458;2023-05-21T10:26:24;9.45;;;5.57;;
25111;SDS011;13092;51.996;4.458;2023-05-21T10:28:53;9.35;;;6.07;;
25111;SDS011;13092;51.996;4.458;2023-05-21T10:31:25;11.57;;;6.13;;
25111;SDS011;13092;51.996;4.458;2023-05-21T10:33:54;10.05;;;5.88;;
25111;SDS011;13092;51.996;4.458;2023-05-21T10:36:23;9.75;;;5.68;;
25111;SDS011;13092;51.996;4.458;2023-05-21T10:38:56;9.23;;;5.97;;
25111;SDS011;13092;51.996;4.458;2023-05-21T10:41:26;12.10;;;6.18;;
25111;SDS011;13092;51.996;4.458;2023-05-21T10:44:02;9.65;;;5.60;;
25111;SDS011;13092;51.996;4.458;2023-05-21T10:46:44;8.80;;;6.35;;
25111;SDS011;13092;51.996;4.458;2023-05-21T10:49:43;12.02;;;6.05;;
25111;SDS011;13092;51.996;4.458;2023-05-21T10:52:24;12.23;;;6.88;;
25111;SDS011;13092;51.996;4.458;2023-05-21T10:55:13;11.35;;;5.82;;
25111;SDS011;13092;51.996;4.458;2023-05-21T10:58:15;12.13;;;5.78;;
25111;SDS011;13092;51.996;4.458;2023-05-21T11:00:59;12.82;;;7.25;;
25111;SDS011;13092;51.996;4.458;2023-05-21T11:03:29;11.27;;;6.47;;
25111;SDS011;13092;51.996;4.458;2023-05-21T11:06:03;9.90;;;6.22;;
25111;SDS011;13092;51.996;4.458;2023-05-21T11:08:35;9.75;;;6.18;;
25111;SDS011;13092;51.996;4.458;2023-05-21T11:11:05;10.93;;;6.32;;
25111;SDS011;13092;51.996;4.458;2023-05-21T11:13:44;12.55;;;6.75;;
25111;SDS011;13092;51.996;4.458;2023-05-21T11:16:15;11.85;;;6.75;;
25111;SDS011;13092;51.996;4.458;2023-05-21T11:18:55;11.45;;;6.70;;
25111;SDS011;13092;51.996;4.458;2023-05-21T11:21:32;10.65;;;6.55;;
25111;SDS011;13092;51.996;4.458;2023-05-21T11:24:04;10.27;;;6.35;;
25111;SDS011;13092;51.996;4.458;2023-05-21T11:29:39;10.68;;;6.38;;
25111;SDS011;13092;51.996;4.458;2023-05-21T11:32:11;11.35;;;7.18;;
25111;SDS011;13092;51.996;4.458;2023-05-21T11:34:45;10.40;;;6.72;;
25111;SDS011;13092;51.996;4.458;2023-05-21T11:37:23;14.23;;;7.35;;
25111;SDS011;13092;51.996;4.458;2023-05-21T11:40:14;10.02;;;6.60;;
25111;SDS011;13092;51.996;4.458;2023-05-21T11:42:49;11.70;;;6.50;;
25111;SDS011;13092;51.996;4.458;2023-05-21T11:45:29;12.25;;;7.07;;
25111;SDS011;13092;51.996;4.458;2023-05-21T11:48:02;11.73;;;6.70;;
25111;SDS011;13092;51.996;4.458;2023-05-21T11:50:36;12.57;;;7.35;;
25111;SDS011;13092;51.996;4.458;2023-05-21T11:53:07;13.65;;;7.22;;
25111;SDS011;13092;51.996;4.458;2023-05-21T11:55:39;11.05;;;6.88;;
25111;SDS011;13092;51.996;4.458;2023-05-21T11:58:09;11.45;;;7.03;;
25111;SDS011;13092;51.996;4.458;2023-05-21T12:00:43;10.57;;;7.55;;
25111;SDS011;13092;51.996;4.458;2023-05-21T12:03:17;10.98;;;7.38;;
25111;SDS011;13092;51.996;4.458;2023-05-21T12:05:52;11.80;;;7.45;;
25111;SDS011;13092;51.996;4.458;2023-05-21T12:08:20;13.70;;;7.68;;
25111;SDS011;13092;51.996;4.458;2023-05-21T12:10:55;11.82;;;7.03;;
25111;SDS011;13092;51.996;4.458;2023-05-21T12:13:27;11.10;;;6.85;;
25111;SDS011;13092;51.996;4.458;2023-05-21T12:15:55;12.68;;;7.25;;
25111;SDS011;13092;51.996;4.458;2023-05-21T12:18:23;10.82;;;6.80;;
25111;SDS011;13092;51.996;4.458;2023-05-21T12:20:52;11.45;;;7.28;;
25111;SDS011;13092;51.996;4.458;2023-05-21T12:23:22;12.65;;;7.80;;
25111;SDS011;13092;51.996;4.458;2023-05-21T12:25:51;11.50;;;7.65;;
25111;SDS011;13092;51.996;4.458;2023-05-21T12:28:22;11.55;;;7.75;;
25111;SDS011;13092;51.996;4.458;2023-05-21T12:30:51;11.95;;;7.50;;
25111;SDS011;13092;51.996;4.458;2023-05-21T12:33:19;14.43;;;7.70;;
25111;SDS011;13092;51.996;4.458;2023-05-21T12:35:51;11.15;;;7.30;;
25111;SDS011;13092;51.996;4.458;2023-05-21T12:38:19;11.65;;;8.10;;
25111;SDS011;13092;51.996;4.458;2023-05-21T12:40:47;12.68;;;8.02;;
25111;SDS011;13092;51.996;4.458;2023-05-21T12:43:16;10.32;;;7.22;;
25111;SDS011;13092;51.996;4.458;2023-05-21T12:45:45;16.83;;;8.85;;
25111;SDS011;13092;51.996;4.458;2023-05-21T12:48:13;14.68;;;7.80;;
25111;SDS011;13092;51.996;4.458;2023-05-21T12:50:41;12.77;;;7.88;;
25111;SDS011;13092;51.996;4.458;2023-05-21T12:53:10;13.57;;;8.13;;
25111;SDS011;13092;51.996;4.458;2023-05-21T12:55:38;13.05;;;8.57;;
25111;SDS011;13092;51.996;4.458;2023-05-21T12:58:06;11.73;;;7.90;;
25111;SDS011;13092;51.996;4.458;2023-05-21T13:00:40;14.52;;;8.27;;
25111;SDS011;13092;51.996;4.458;2023-05-21T13:03:12;12.20;;;8.27;;
25111;SDS011;13092;51.996;4.458;2023-05-21T13:05:41;11.30;;;7.47;;
25111;SDS011;13092;51.996;4.458;2023-05-21T13:08:09;12.00;;;8.15;;
25111;SDS011;13092;51.996;4.458;2023-05-21T13:10:39;12.38;;;7.93;;
25111;SDS011;13092;51.996;4.458;2023-05-21T13:13:08;14.55;;;8.32;;
25111;SDS011;13092;51.996;4.458;2023-05-21T13:15:39;12.40;;;8.48;;
25111;SDS011;13092;51.996;4.458;2023-05-21T13:18:07;15.38;;;8.00;;
25111;SDS011;13092;51.996;4.458;2023-05-21T13:20:39;13.10;;;7.78;;
25111;SDS011;13092;51.996;4.458;2023-05-21T13:23:07;14.68;;;8.48;;
25111;SDS011;13092;51.996;4.458;2023-05-21T13:25:37;11.98;;;8.10;;
25111;SDS011;13092;51.996;4.458;2023-05-21T13:28:06;13.82;;;8.30;;
25111;SDS011;13092;51.996;4.458;2023-05-21T13:30:35;14.40;;;7.97;;
25111;SDS011;13092;51.996;4.458;2023-05-21T13:33:04;13.60;;;8.40;;
25111;SDS011;13092;51.996;4.458;2023-05-21T13:35:33;13.27;;;8.05;;
25111;SDS011;13092;51.996;4.458;2023-05-21T13:38:03;11.82;;;7.00;;
25111;SDS011;13092;51.996;4.458;2023-05-21T13:40:31;11.38;;;7.20;;
25111;SDS011;13092;51.996;4.458;2023-05-21T13:43:04;14.25;;;8.10;;
25111;SDS011;13092;51.996;4.458;2023-05-21T13:45:32;14.57;;;7.47;;
25111;SDS011;13092;51.996;4.458;2023-05-21T13:48:00;11.65;;;7.45;;
25111;SDS011;13092;51.996;4.458;2023-05-21T13:50:28;13.73;;;8.02;;
25111;SDS011;13092;51.996;4.458;2023-05-21T13:52:57;11.77;;;7.97;;
25111;SDS011;13092;51.996;4.458;2023-05-21T13:55:29;13.95;;;8.95;;
25111;SDS011;13092;51.996;4.458;2023-05-21T13:57:58;11.20;;;8.10;;
25111;SDS011;13092;51.996;4.458;2023-05-21T14:00:26;10.73;;;5.13;;
25111;SDS011;13092;51.996;4.458;2023-05-21T14:02:54;11.40;;;4.50;;
25111;SDS011;13092;51.996;4.458;2023-05-21T14:05:24;13.57;;;5.03;;
25111;SDS011;13092;51.996;4.458;2023-05-21T14:07:52;11.15;;;4.95;;
25111;SDS011;13092;51.996;4.458;2023-05-21T14:10:23;14.18;;;5.03;;
25111;SDS011;13092;51.996;4.458;2023-05-21T14:12:54;9.52;;;4.88;;
25111;SDS011;13092;51.996;4.458;2023-05-21T14:15:32;8.95;;;4.40;;
25111;SDS011;13092;51.996;4.458;2023-05-21T14:18:02;11.15;;;4.72;;
25111;SDS011;13092;51.996;4.458;2023-05-21T14:20:35;12.20;;;4.95;;
25111;SDS011;13092;51.996;4.458;2023-05-21T14:23:03;10.02;;;4.45;;
25111;SDS011;13092;51.996;4.458;2023-05-21T14:25:31;14.25;;;5.50;;
25111;SDS011;13092;51.996;4.458;2023-05-21T14:28:01;10.57;;;4.88;;
25111;SDS011;13092;51.996;4.458;2023-05-21T14:30:30;10.38;;;4.90;;
25111;SDS011;13092;51.996;4.458;2023-05-21T14:32:58;8.73;;;4.32;;
25111;SDS011;13092;51.996;4.458;2023-05-21T14:35:26;11.23;;;4.22;;
25111;SDS011;13092;51.996;4.458;2023-05-21T14:37:54;13.40;;;5.40;;
25111;SDS011;13092;51.996;4.458;2023-05-21T14:40:23;13.52;;;5.47;;
25111;SDS011;13092;51.996;4.458;2023-05-21T14:42:51;15.13;;;5.05;;
25111;SDS011;13092;51.996;4.458;2023-05-21T14:45:21;11.88;;;4.93;;